createdAt,value
2023-05-19T00:00:27.728Z,0.00
2023-05-19T00:01:25.941Z,0.00
2023-05-19T00:02:25.951Z,0.00
2023-05-19T00:03:25.855Z,0.00
2023-05-19T00:04:25.718Z,0.00
2023-05-19T00:05:25.728Z,0.00
2023-05-19T00:06:25.798Z,0.00
2023-05-19T00:07:25.822Z,0.00
2023-05-19T00:08:25.730Z,0.00
2023-05-19T00:09:25.750Z,0.00
2023-05-19T00:10:25.700Z,0.00
2023-05-19T00:11:25.629Z,0.00
2023-05-19T00:12:25.631Z,0.00
2023-05-19T00:13:25.669Z,0.00
2023-05-19T00:14:27.093Z,0.00
2023-05-19T00:15:25.621Z,0.00
2023-05-19T00:16:25.741Z,0.00
2023-05-19T00:17:25.570Z,0.00
2023-05-19T00:18:25.610Z,0.00
2023-05-19T00:19:25.665Z,0.00
2023-05-19T00:20:25.668Z,0.00
2023-05-19T00:21:26.994Z,0.00
2023-05-19T00:22:25.592Z,0.00
2023-05-19T00:23:25.550Z,0.00
2023-05-19T00:24:25.505Z,0.00
2023-05-19T00:25:25.491Z,0.00
2023-05-19T00:26:25.442Z,0.00
2023-05-19T00:27:27.453Z,0.00
2023-05-19T00:28:25.529Z,0.00
2023-05-19T00:29:25.548Z,0.00
2023-05-19T00:30:25.448Z,0.00
2023-05-19T00:31:25.428Z,0.00
2023-05-19T00:32:25.490Z,0.00
2023-05-19T00:33:25.437Z,0.00
2023-05-19T00:34:25.585Z,0.00
2023-05-19T00:35:25.374Z,0.00
2023-05-19T00:36:25.384Z,0.00
2023-05-19T00:37:25.345Z,0.00
2023-05-19T00:38:25.375Z,0.00
2023-05-19T00:39:25.386Z,0.00
2023-05-19T00:40:25.318Z,0.00
2023-05-19T00:41:25.279Z,0.00
2023-05-19T00:42:25.307Z,0.00
2023-05-19T00:43:25.342Z,0.00
2023-05-19T00:44:25.302Z,0.00
2023-05-19T00:45:25.251Z,0.00
2023-05-19T00:46:25.382Z,0.00
2023-05-19T00:47:26.810Z,0.00
2023-05-19T00:48:25.300Z,0.00
2023-05-19T00:49:25.255Z,0.00
2023-05-19T00:50:25.216Z,0.00
2023-05-19T00:51:25.251Z,0.00
2023-05-19T00:52:25.158Z,0.00
2023-05-19T00:53:25.313Z,0.00
2023-05-19T00:54:25.181Z,0.00
2023-05-19T00:55:25.236Z,0.00
2023-05-19T00:56:25.116Z,0.00
2023-05-19T00:57:25.251Z,0.00
2023-05-19T00:58:25.266Z,0.00
2023-05-19T00:59:25.084Z,0.00
2023-05-19T01:00:26.172Z,0.00
2023-05-19T01:01:25.186Z,0.00
2023-05-19T01:02:25.258Z,0.00
2023-05-19T01:03:25.292Z,0.00
2023-05-19T01:04:25.085Z,0.00
2023-05-19T01:05:25.069Z,0.00
2023-05-19T01:06:25.020Z,0.00
2023-05-19T01:07:26.988Z,0.00
2023-05-19T01:08:25.121Z,0.00
2023-05-19T01:09:25.004Z,0.00
2023-05-19T01:10:24.975Z,0.00
2023-05-19T01:11:24.965Z,0.00
2023-05-19T01:12:26.966Z,0.00
2023-05-19T01:13:24.997Z,0.00
2023-05-19T01:14:25.010Z,0.00
2023-05-19T01:15:25.035Z,0.00
2023-05-19T01:16:25.060Z,0.00
2023-05-19T01:17:25.021Z,0.00
2023-05-19T01:18:24.876Z,0.00
2023-05-19T01:19:25.950Z,0.00
2023-05-19T01:20:24.923Z,0.00
2023-05-19T01:21:24.884Z,0.00
2023-05-19T01:22:24.884Z,0.00
2023-05-19T01:23:24.831Z,0.00
2023-05-19T01:24:24.831Z,0.00
2023-05-19T01:25:24.902Z,0.00
2023-05-19T01:26:26.848Z,0.00
2023-05-19T01:27:24.897Z,0.00
2023-05-19T01:28:24.864Z,0.00
2023-05-19T01:29:24.723Z,0.00
2023-05-19T01:30:24.800Z,0.00
2023-05-19T01:31:24.868Z,0.00
2023-05-19T01:32:24.718Z,0.00
2023-05-19T01:33:26.682Z,0.00
2023-05-19T01:34:24.741Z,0.00
2023-05-19T01:35:24.839Z,0.00
2023-05-19T01:36:24.690Z,0.00
2023-05-19T01:37:24.681Z,0.00
2023-05-19T01:38:24.749Z,0.00
2023-05-19T01:39:26.241Z,0.00
2023-05-19T01:40:24.687Z,0.00
2023-05-19T01:41:24.667Z,0.00
2023-05-19T01:42:24.631Z,0.00
2023-05-19T01:43:24.622Z,0.00
2023-05-19T01:44:24.647Z,0.00
2023-05-19T01:45:24.741Z,0.00
2023-05-19T01:46:26.240Z,0.00
2023-05-19T01:47:24.727Z,0.00
2023-05-19T01:48:24.579Z,0.00
2023-05-19T01:49:24.614Z,0.00
2023-05-19T01:50:24.579Z,0.00
2023-05-19T01:51:24.593Z,0.00
2023-05-19T01:52:24.578Z,0.00
2023-05-19T01:53:24.660Z,0.00
2023-05-19T01:54:24.580Z,0.00
2023-05-19T01:55:24.548Z,0.00
2023-05-19T01:56:24.508Z,0.00
2023-05-19T01:57:24.447Z,0.00
2023-05-19T01:58:24.434Z,0.00
2023-05-19T01:59:26.387Z,0.00
2023-05-19T02:00:24.445Z,0.00
2023-05-19T02:01:24.488Z,0.00
2023-05-19T02:02:24.479Z,0.00
2023-05-19T02:03:24.402Z,0.00
2023-05-19T02:04:24.425Z,0.00
2023-05-19T02:05:24.368Z,0.00
2023-05-19T02:06:25.787Z,0.00
2023-05-19T02:07:24.484Z,0.00
2023-05-19T02:08:24.397Z,0.00
2023-05-19T02:09:24.450Z,0.00
2023-05-19T02:10:24.318Z,0.00
2023-05-19T02:11:24.315Z,0.00
2023-05-19T02:12:24.373Z,0.00
2023-05-19T02:13:25.853Z,0.00
2023-05-19T02:14:24.263Z,0.00
2023-05-19T02:15:24.261Z,0.00
2023-05-19T02:16:24.347Z,0.00
2023-05-19T02:17:24.292Z,0.00
2023-05-19T02:18:24.178Z,0.00
2023-05-19T02:19:24.645Z,0.00
2023-05-19T02:20:24.235Z,0.00
2023-05-19T02:21:24.278Z,0.00
2023-05-19T02:22:24.273Z,0.00
2023-05-19T02:23:24.184Z,0.00
2023-05-19T02:24:24.189Z,0.00
2023-05-19T02:25:24.207Z,0.00
2023-05-19T02:26:25.802Z,0.00
2023-05-19T02:27:24.172Z,0.00
2023-05-19T02:28:24.137Z,0.00
2023-05-19T02:29:24.179Z,0.00
2023-05-19T02:30:24.122Z,0.00
2023-05-19T02:31:24.171Z,0.00
2023-05-19T02:32:24.136Z,0.00
2023-05-19T02:33:25.582Z,0.00
2023-05-19T02:34:24.131Z,0.00
2023-05-19T02:35:24.149Z,0.00
2023-05-19T02:36:24.159Z,0.00
2023-05-19T02:37:24.044Z,0.00
2023-05-19T02:38:24.070Z,0.00
2023-05-19T02:39:24.029Z,0.00
2023-05-19T02:40:26.066Z,0.00
2023-05-19T02:41:24.081Z,0.00
2023-05-19T02:42:23.989Z,0.00
2023-05-19T02:43:23.974Z,0.00
2023-05-19T02:44:23.977Z,0.00
2023-05-19T02:45:24.011Z,0.00
2023-05-19T02:46:24.013Z,0.00
2023-05-19T02:47:26.131Z,0.00
2023-05-19T02:48:23.965Z,0.00
2023-05-19T02:49:24.066Z,0.00
2023-05-19T02:50:23.964Z,0.00
2023-05-19T02:51:23.927Z,0.00
2023-05-19T02:52:23.879Z,0.00
2023-05-19T02:53:23.858Z,0.00
2023-05-19T02:54:25.471Z,0.00
2023-05-19T02:55:23.900Z,0.00
2023-05-19T02:56:23.870Z,0.00
2023-05-19T02:57:23.924Z,0.00
2023-05-19T02:58:23.829Z,0.00
2023-05-19T02:59:25.620Z,0.00
2023-05-19T03:00:23.880Z,0.00
2023-05-19T03:01:23.796Z,0.00
2023-05-19T03:02:23.769Z,0.00
2023-05-19T03:03:23.845Z,0.00
2023-05-19T03:04:23.766Z,0.00
2023-05-19T03:05:23.717Z,4.00
2023-05-19T03:06:23.747Z,0.00
2023-05-19T03:07:25.684Z,4.00
2023-05-19T03:08:23.707Z,0.00
2023-05-19T03:09:23.755Z,4.00
2023-05-19T03:10:23.696Z,4.00
2023-05-19T03:11:23.662Z,4.00
2023-05-19T03:12:23.667Z,4.00
2023-05-19T03:13:23.743Z,4.00
2023-05-19T03:14:24.164Z,4.00
2023-05-19T03:15:23.655Z,4.00
2023-05-19T03:16:23.657Z,4.00
2023-05-19T03:17:23.773Z,4.00
2023-05-19T03:18:23.718Z,8.00
2023-05-19T03:19:23.697Z,4.00
2023-05-19T03:20:23.734Z,8.00
2023-05-19T03:21:23.563Z,8.00
2023-05-19T03:22:23.686Z,8.00
2023-05-19T03:23:23.588Z,8.00
2023-05-19T03:24:23.491Z,12.00
2023-05-19T03:25:23.570Z,12.00
2023-05-19T03:26:23.518Z,16.00
2023-05-19T03:27:25.345Z,12.00
2023-05-19T03:28:23.526Z,16.00
2023-05-19T03:29:23.476Z,16.00
2023-05-19T03:30:23.521Z,20.00
2023-05-19T03:31:23.467Z,20.00
2023-05-19T03:32:23.605Z,20.00
2023-05-19T03:33:23.690Z,24.00
2023-05-19T03:34:23.487Z,28.00
2023-05-19T03:35:23.441Z,28.00
2023-05-19T03:36:23.427Z,32.00
2023-05-19T03:37:23.404Z,36.00
2023-05-19T03:38:23.382Z,36.00
2023-05-19T03:39:23.396Z,36.00
2023-05-19T03:40:23.626Z,44.00
2023-05-19T03:41:23.368Z,48.00
2023-05-19T03:42:23.332Z,48.00
2023-05-19T03:43:23.334Z,56.00
2023-05-19T03:44:23.314Z,56.00
2023-05-19T03:45:23.307Z,60.00
2023-05-19T03:46:23.344Z,64.00
2023-05-19T03:47:23.490Z,68.00
2023-05-19T03:48:23.259Z,72.00
2023-05-19T03:49:23.395Z,76.00
2023-05-19T03:50:23.276Z,80.00
2023-05-19T03:51:23.314Z,88.00
2023-05-19T03:52:23.259Z,88.00
2023-05-19T03:53:23.381Z,92.00
2023-05-19T03:54:23.200Z,96.00
2023-05-19T03:55:23.293Z,104.00
2023-05-19T03:56:23.154Z,108.00
2023-05-19T03:57:23.212Z,112.00
2023-05-19T03:58:23.187Z,116.00
2023-05-19T03:59:23.323Z,120.00
2023-05-19T04:00:23.330Z,124.00
2023-05-19T04:01:23.185Z,128.00
2023-05-19T04:02:23.203Z,132.00
2023-05-19T04:03:23.152Z,140.00
2023-05-19T04:04:23.182Z,140.00
2023-05-19T04:05:23.073Z,144.00
2023-05-19T04:06:23.046Z,148.00
2023-05-19T04:07:23.094Z,152.00
2023-05-19T04:08:23.035Z,160.00
2023-05-19T04:09:23.068Z,164.00
2023-05-19T04:10:23.015Z,168.00
2023-05-19T04:11:23.029Z,172.00
2023-05-19T04:12:23.000Z,176.00
2023-05-19T04:13:23.062Z,184.00
2023-05-19T04:14:23.033Z,188.00
2023-05-19T04:15:22.994Z,188.00
2023-05-19T04:16:23.054Z,196.00
2023-05-19T04:17:23.015Z,200.00
2023-05-19T04:18:22.980Z,204.00
2023-05-19T04:19:24.594Z,208.00
2023-05-19T04:20:22.969Z,212.00
2023-05-19T04:21:22.917Z,216.00
2023-05-19T04:22:22.852Z,224.00
2023-05-19T04:23:22.914Z,228.00
2023-05-19T04:24:22.894Z,232.00
2023-05-19T04:25:22.899Z,236.00
2023-05-19T04:26:24.315Z,240.00
2023-05-19T04:27:22.943Z,244.00
2023-05-19T04:28:22.937Z,256.00
2023-05-19T04:29:22.825Z,260.00
2023-05-19T04:30:22.914Z,264.00
2023-05-19T04:31:22.905Z,272.00
2023-05-19T04:32:22.839Z,276.00
2023-05-19T04:33:22.890Z,276.00
2023-05-19T04:34:22.819Z,284.00
2023-05-19T04:35:22.790Z,292.00
2023-05-19T04:36:22.748Z,296.00
2023-05-19T04:37:22.778Z,300.00
2023-05-19T04:38:22.763Z,304.00
2023-05-19T04:39:22.737Z,308.00
2023-05-19T04:40:22.734Z,316.00
2023-05-19T04:41:22.801Z,320.00
2023-05-19T04:42:22.777Z,332.00
2023-05-19T04:43:22.680Z,352.00
2023-05-19T04:44:22.667Z,368.00
2023-05-19T04:45:22.733Z,412.00
2023-05-19T04:46:22.776Z,508.00
2023-05-19T04:47:24.099Z,640.00
2023-05-19T04:48:22.585Z,744.00
2023-05-19T04:49:22.619Z,752.00
2023-05-19T04:50:22.583Z,656.00
2023-05-19T04:51:22.589Z,596.00
2023-05-19T04:52:22.608Z,552.00
2023-05-19T04:53:24.539Z,580.00
2023-05-19T04:54:24.039Z,544.00
2023-05-19T04:55:22.598Z,480.00
2023-05-19T04:56:22.561Z,472.00
2023-05-19T04:57:22.496Z,476.00
2023-05-19T04:58:22.469Z,460.00
2023-05-19T04:59:22.502Z,468.00
2023-05-19T05:00:22.597Z,476.00
2023-05-19T05:01:22.695Z,508.00
2023-05-19T05:02:22.683Z,508.00
2023-05-19T05:03:22.576Z,468.00
2023-05-19T05:04:22.508Z,456.00
2023-05-19T05:05:22.566Z,464.00
2023-05-19T05:06:22.724Z,444.00
2023-05-19T05:07:24.257Z,452.00
2023-05-19T05:08:22.390Z,468.00
2023-05-19T05:09:24.158Z,492.00
2023-05-19T05:10:22.455Z,492.00
2023-05-19T05:11:22.518Z,504.00
2023-05-19T05:12:22.420Z,464.00
2023-05-19T05:13:22.339Z,464.00
2023-05-19T05:14:24.094Z,472.00
2023-05-19T05:15:22.393Z,476.00
2023-05-19T05:16:22.384Z,488.00
2023-05-19T05:17:22.381Z,496.00
2023-05-19T05:18:22.406Z,504.00
2023-05-19T05:19:22.430Z,512.00
2023-05-19T05:20:22.270Z,520.00
2023-05-19T05:21:22.247Z,524.00
2023-05-19T05:22:22.240Z,536.00
2023-05-19T05:23:22.243Z,528.00
2023-05-19T05:24:22.243Z,532.00
2023-05-19T05:25:23.715Z,532.00
2023-05-19T05:26:22.199Z,532.00
2023-05-19T05:27:22.171Z,532.00
2023-05-19T05:28:22.183Z,528.00
2023-05-19T05:29:22.163Z,524.00
2023-05-19T05:30:22.150Z,508.00
2023-05-19T05:31:22.248Z,492.00
2023-05-19T05:32:24.123Z,500.00
2023-05-19T05:33:22.304Z,508.00
2023-05-19T05:34:22.108Z,516.00
2023-05-19T05:35:22.083Z,520.00
2023-05-19T05:36:22.113Z,524.00
2023-05-19T05:37:22.072Z,532.00
2023-05-19T05:38:22.141Z,544.00
2023-05-19T05:39:22.069Z,552.00
2023-05-19T05:40:22.057Z,560.00
2023-05-19T05:41:22.052Z,568.00
2023-05-19T05:42:22.048Z,572.00
2023-05-19T05:43:23.844Z,572.00
2023-05-19T05:44:21.985Z,564.00
2023-05-19T05:45:24.029Z,560.00
2023-05-19T05:46:22.078Z,556.00
2023-05-19T05:47:22.073Z,548.00
2023-05-19T05:48:21.960Z,544.00
2023-05-19T05:49:21.969Z,560.00
2023-05-19T05:50:21.937Z,568.00
2023-05-19T05:51:22.268Z,572.00
2023-05-19T05:52:23.109Z,576.00
2023-05-19T05:53:22.419Z,580.00
2023-05-19T05:54:22.473Z,584.00
2023-05-19T05:55:22.924Z,588.00
2023-05-19T05:56:25.483Z,592.00
2023-05-19T05:57:24.269Z,596.00
2023-05-19T05:58:23.374Z,604.00
2023-05-19T05:59:24.689Z,612.00
2023-05-19T06:00:22.337Z,616.00
2023-05-19T06:01:24.416Z,616.00
2023-05-19T06:02:22.862Z,616.00
2023-05-19T06:03:22.777Z,616.00
2023-05-19T06:04:22.305Z,612.00
2023-05-19T06:05:22.545Z,608.00
2023-05-19T06:06:21.881Z,608.00
2023-05-19T06:07:22.507Z,608.00
2023-05-19T06:08:22.564Z,604.00
2023-05-19T06:09:22.562Z,600.00
2023-05-19T06:10:24.594Z,600.00
2023-05-19T06:11:23.233Z,600.00
2023-05-19T06:12:22.257Z,604.00
2023-05-19T06:13:22.054Z,608.00
2023-05-19T06:14:22.573Z,612.00
2023-05-19T06:15:22.746Z,620.00
2023-05-19T06:16:22.549Z,624.00
2023-05-19T06:17:22.022Z,624.00
2023-05-19T06:18:21.584Z,628.00
2023-05-19T06:19:21.740Z,620.00
2023-05-19T06:20:21.555Z,628.00
2023-05-19T06:21:21.511Z,628.00
2023-05-19T06:22:21.544Z,668.00
2023-05-19T06:23:21.820Z,696.00
2023-05-19T06:24:21.509Z,708.00
2023-05-19T06:25:21.868Z,676.00
2023-05-19T06:26:21.522Z,684.00
2023-05-19T06:27:21.666Z,776.00
2023-05-19T06:28:21.518Z,956.00
2023-05-19T06:29:23.421Z,1036.00
2023-05-19T06:30:21.534Z,1460.00
2023-05-19T06:31:21.804Z,1204.00
2023-05-19T06:32:22.153Z,1128.00
2023-05-19T06:33:22.460Z,1372.00
2023-05-19T06:34:22.392Z,1228.00
2023-05-19T06:35:23.247Z,1272.00
2023-05-19T06:36:22.117Z,936.00
2023-05-19T06:37:21.459Z,856.00
2023-05-19T06:38:22.867Z,712.00
2023-05-19T06:39:21.474Z,764.00
2023-05-19T06:40:21.517Z,744.00
2023-05-19T06:41:23.059Z,672.00
2023-05-19T06:42:22.082Z,672.00
2023-05-19T06:43:21.858Z,648.00
2023-05-19T06:44:22.122Z,632.00
2023-05-19T06:45:21.334Z,620.00
2023-05-19T06:46:22.921Z,620.00
2023-05-19T06:47:21.366Z,660.00
2023-05-19T06:48:21.271Z,616.00
2023-05-19T06:49:21.397Z,600.00
2023-05-19T06:50:21.641Z,612.00
2023-05-19T06:51:22.834Z,624.00
2023-05-19T06:52:21.251Z,628.00
2023-05-19T06:53:21.250Z,636.00
2023-05-19T06:54:21.291Z,604.00
2023-05-19T06:55:21.252Z,608.00
2023-05-19T06:56:21.255Z,596.00
2023-05-19T06:57:21.311Z,604.00
2023-05-19T06:58:21.251Z,588.00
2023-05-19T06:59:22.702Z,588.00
2023-05-19T07:00:23.098Z,568.00
2023-05-19T07:01:22.760Z,596.00
2023-05-19T07:02:21.137Z,588.00
2023-05-19T07:03:21.327Z,580.00
2023-05-19T07:04:24.474Z,580.00
2023-05-19T07:05:21.160Z,588.00
2023-05-19T07:06:21.308Z,592.00
2023-05-19T07:07:21.096Z,596.00
2023-05-19T07:08:21.078Z,596.00
2023-05-19T07:09:23.677Z,592.00
2023-05-19T07:10:21.398Z,588.00
2023-05-19T07:11:21.033Z,572.00
2023-05-19T07:12:21.268Z,560.00
2023-05-19T07:13:21.009Z,568.00
2023-05-19T07:14:22.934Z,568.00
2023-05-19T07:15:22.987Z,572.00
2023-05-19T07:16:21.225Z,576.00
2023-05-19T07:17:21.064Z,580.00
2023-05-19T07:18:20.982Z,580.00
2023-05-19T07:19:20.997Z,580.00
2023-05-19T07:20:20.923Z,580.00
2023-05-19T07:21:20.946Z,580.00
2023-05-19T07:22:20.956Z,584.00
2023-05-19T07:23:20.903Z,584.00
2023-05-19T07:24:21.387Z,588.00
2023-05-19T07:25:21.169Z,592.00
2023-05-19T07:26:20.936Z,592.00
2023-05-19T07:27:20.938Z,596.00
2023-05-19T07:28:20.846Z,600.00
2023-05-19T07:29:22.362Z,592.00
2023-05-19T07:30:20.850Z,592.00
2023-05-19T07:31:20.945Z,588.00
2023-05-19T07:32:21.003Z,584.00
2023-05-19T07:33:22.755Z,588.00
2023-05-19T07:34:20.761Z,596.00
2023-05-19T07:35:20.791Z,600.00
2023-05-19T07:36:20.808Z,604.00
2023-05-19T07:37:20.763Z,608.00
2023-05-19T07:38:20.741Z,608.00
2023-05-19T07:39:20.829Z,612.00
2023-05-19T07:40:22.684Z,620.00
2023-05-19T07:41:20.799Z,616.00
2023-05-19T07:42:20.739Z,620.00
2023-05-19T07:43:20.704Z,620.00
2023-05-19T07:44:20.666Z,624.00
2023-05-19T07:45:20.743Z,624.00
2023-05-19T07:46:20.752Z,628.00
2023-05-19T07:47:20.896Z,624.00
2023-05-19T07:48:20.651Z,624.00
2023-05-19T07:49:20.617Z,644.00
2023-05-19T07:50:20.643Z,624.00
2023-05-19T07:51:20.602Z,616.00
2023-05-19T07:52:20.614Z,632.00
2023-05-19T07:53:20.601Z,624.00
2023-05-19T07:54:20.742Z,624.00
2023-05-19T07:55:20.608Z,620.00
2023-05-19T07:56:20.557Z,616.00
2023-05-19T07:57:20.540Z,624.00
2023-05-19T07:58:20.526Z,620.00
2023-05-19T07:59:20.487Z,616.00
2023-05-19T08:00:20.569Z,620.00
2023-05-19T08:01:20.586Z,616.00
2023-05-19T08:02:20.523Z,620.00
2023-05-19T08:03:20.798Z,620.00
2023-05-19T08:04:20.598Z,616.00
2023-05-19T08:05:20.453Z,616.00
2023-05-19T08:06:20.442Z,616.00
2023-05-19T08:07:20.462Z,608.00
2023-05-19T08:08:20.696Z,620.00
2023-05-19T08:09:20.463Z,620.00
2023-05-19T08:10:20.359Z,620.00
2023-05-19T08:11:20.340Z,624.00
2023-05-19T08:12:20.403Z,620.00
2023-05-19T08:13:20.410Z,620.00
2023-05-19T08:14:20.489Z,616.00
2023-05-19T08:15:20.498Z,620.00
2023-05-19T08:16:20.429Z,624.00
2023-05-19T08:17:20.282Z,624.00
2023-05-19T08:18:20.356Z,624.00
2023-05-19T08:19:20.363Z,624.00
2023-05-19T08:20:20.306Z,620.00
2023-05-19T08:21:20.246Z,620.00
2023-05-19T08:22:20.588Z,628.00
2023-05-19T08:23:20.261Z,628.00
2023-05-19T08:24:20.232Z,628.00
2023-05-19T08:25:20.348Z,632.00
2023-05-19T08:26:20.216Z,628.00
2023-05-19T08:27:20.181Z,628.00
2023-05-19T08:28:20.342Z,628.00
2023-05-19T08:29:20.234Z,624.00
2023-05-19T08:30:20.234Z,628.00
2023-05-19T08:31:20.354Z,628.00
2023-05-19T08:32:20.133Z,668.00
2023-05-19T08:33:20.169Z,704.00
2023-05-19T08:34:20.107Z,652.00
2023-05-19T08:35:20.166Z,636.00
2023-05-19T08:36:20.088Z,596.00
2023-05-19T08:37:20.120Z,652.00
2023-05-19T08:38:20.134Z,664.00
2023-05-19T08:39:20.148Z,680.00
2023-05-19T08:40:20.042Z,692.00
2023-05-19T08:41:19.978Z,796.00
2023-05-19T08:42:20.046Z,768.00
2023-05-19T08:43:20.123Z,644.00
2023-05-19T08:44:20.030Z,724.00
2023-05-19T08:45:20.035Z,884.00
2023-05-19T08:46:20.044Z,836.00
2023-05-19T08:47:19.994Z,676.00
2023-05-19T08:48:19.974Z,668.00
2023-05-19T08:49:19.963Z,756.00
2023-05-19T08:50:19.969Z,884.00
2023-05-19T08:51:19.963Z,1148.00
2023-05-19T08:52:19.983Z,1428.00
2023-05-19T08:53:32.376Z,1284.00
2023-05-19T08:54:20.919Z,1084.00
2023-05-19T08:55:19.912Z,1188.00
2023-05-19T08:56:19.970Z,1316.00
2023-05-19T08:57:19.918Z,1424.00
2023-05-19T08:58:19.845Z,1424.00
2023-05-19T08:59:19.864Z,1320.00
2023-05-19T09:00:19.802Z,1596.00
2023-05-19T09:01:19.940Z,1788.00
2023-05-19T09:02:19.847Z,1524.00
2023-05-19T09:03:23.752Z,1440.00
2023-05-19T09:04:19.995Z,1508.00
2023-05-19T09:05:20.058Z,1524.00
2023-05-19T09:06:20.004Z,1584.00
2023-05-19T09:07:19.753Z,1584.00
2023-05-19T09:08:19.726Z,1432.00
2023-05-19T09:09:19.717Z,1280.00
2023-05-19T09:10:19.907Z,1316.00
2023-05-19T09:11:21.702Z,1436.00
2023-05-19T09:12:19.737Z,1356.00
2023-05-19T09:13:19.666Z,1272.00
2023-05-19T09:14:19.654Z,1344.00
2023-05-19T09:15:19.728Z,1264.00
2023-05-19T09:16:19.673Z,1288.00
2023-05-19T09:17:19.720Z,1392.00
2023-05-19T09:18:21.588Z,1368.00
2023-05-19T09:19:19.678Z,1268.00
2023-05-19T09:20:19.729Z,1344.00
2023-05-19T09:21:19.615Z,1452.00
2023-05-19T09:22:19.597Z,1444.00
2023-05-19T09:23:19.634Z,1436.00
2023-05-19T09:24:19.590Z,1552.00
2023-05-19T09:25:19.581Z,1524.00
2023-05-19T09:26:19.606Z,1552.00
2023-05-19T09:27:19.545Z,1560.00
2023-05-19T09:28:19.502Z,1316.00
2023-05-19T09:29:19.585Z,1360.00
2023-05-19T09:30:19.628Z,1412.00
2023-05-19T09:31:19.521Z,1360.00
2023-05-19T09:32:19.733Z,1216.00
2023-05-19T09:33:19.703Z,1372.00
2023-05-19T09:34:19.553Z,1600.00
2023-05-19T09:35:19.475Z,1744.00
2023-05-19T09:36:19.468Z,1668.00
2023-05-19T09:37:19.439Z,1420.00
2023-05-19T09:38:19.463Z,1240.00
2023-05-19T09:39:19.670Z,1180.00
2023-05-19T09:40:19.417Z,1196.00
2023-05-19T09:41:19.368Z,1388.00
2023-05-19T09:42:19.374Z,1416.00
2023-05-19T09:43:19.452Z,1372.00
2023-05-19T09:44:19.412Z,1392.00
2023-05-19T09:45:19.312Z,1548.00
2023-05-19T09:46:19.464Z,1576.00
2023-05-19T09:47:19.334Z,1540.00
2023-05-19T09:48:19.407Z,1584.00
2023-05-19T09:49:19.256Z,1724.00
2023-05-19T09:50:19.302Z,1660.00
2023-05-19T09:51:19.278Z,1620.00
2023-05-19T09:52:19.197Z,1428.00
2023-05-19T09:53:19.587Z,1488.00
2023-05-19T09:54:20.557Z,1436.00
2023-05-19T09:55:19.237Z,1420.00
2023-05-19T09:56:19.221Z,1224.00
2023-05-19T09:57:19.223Z,1268.00
2023-05-19T09:58:19.244Z,1432.00
2023-05-19T09:59:19.186Z,1352.00
2023-05-19T10:00:19.183Z,1524.00
2023-05-19T10:01:19.393Z,1608.00
2023-05-19T10:02:19.103Z,1600.00
2023-05-19T10:03:19.212Z,1628.00
2023-05-19T10:04:19.143Z,1536.00
2023-05-19T10:05:19.182Z,1396.00
2023-05-19T10:06:19.150Z,1516.00
2023-05-19T10:07:19.176Z,1528.00
2023-05-19T10:08:19.111Z,1544.00
2023-05-19T10:09:19.076Z,1440.00
2023-05-19T10:10:19.126Z,1088.00
2023-05-19T10:11:19.156Z,836.00
2023-05-19T10:12:19.088Z,764.00
2023-05-19T10:13:18.998Z,736.00
2023-05-19T10:14:19.082Z,740.00
2023-05-19T10:15:20.754Z,740.00
2023-05-19T10:16:19.072Z,748.00
2023-05-19T10:17:18.952Z,808.00
2023-05-19T10:18:18.933Z,896.00
2023-05-19T10:19:19.009Z,996.00
2023-05-19T10:20:19.059Z,956.00
2023-05-19T10:21:18.992Z,944.00
2023-05-19T10:22:19.204Z,836.00
2023-05-19T10:23:18.887Z,696.00
2023-05-19T10:24:18.942Z,608.00
2023-05-19T10:25:18.943Z,652.00
2023-05-19T10:26:18.905Z,644.00
2023-05-19T10:27:18.893Z,708.00
2023-05-19T10:28:20.371Z,720.00
2023-05-19T10:29:18.936Z,740.00
2023-05-19T10:30:18.918Z,760.00
2023-05-19T10:31:18.802Z,764.00
2023-05-19T10:32:18.834Z,844.00
2023-05-19T10:33:18.855Z,976.00
2023-05-19T10:34:18.822Z,1032.00
2023-05-19T10:35:20.824Z,1028.00
2023-05-19T10:36:18.857Z,940.00
2023-05-19T10:37:18.736Z,908.00
2023-05-19T10:38:18.783Z,992.00
2023-05-19T10:39:18.824Z,1084.00
2023-05-19T10:40:18.788Z,1108.00
2023-05-19T10:41:18.718Z,916.00
2023-05-19T10:42:18.958Z,704.00
2023-05-19T10:43:18.721Z,628.00
2023-05-19T10:44:18.728Z,712.00
2023-05-19T10:45:18.681Z,704.00
2023-05-19T10:46:18.630Z,720.00
2023-05-19T10:47:18.801Z,792.00
2023-05-19T10:48:18.682Z,936.00
2023-05-19T10:49:18.791Z,1132.00
2023-05-19T10:50:18.602Z,1236.00
2023-05-19T10:51:18.628Z,1224.00
2023-05-19T10:52:18.647Z,1196.00
2023-05-19T10:53:18.613Z,1176.00
2023-05-19T10:54:18.673Z,1128.00
2023-05-19T10:55:18.505Z,1124.00
2023-05-19T10:56:18.622Z,1108.00
2023-05-19T10:57:18.576Z,912.00
2023-05-19T10:58:18.612Z,860.00
2023-05-19T10:59:18.575Z,864.00
2023-05-19T11:00:18.518Z,736.00
2023-05-19T11:01:18.582Z,660.00
2023-05-19T11:02:18.559Z,684.00
2023-05-19T11:03:18.789Z,736.00
2023-05-19T11:04:18.532Z,904.00
2023-05-19T11:05:18.508Z,832.00
2023-05-19T11:06:18.440Z,984.00
2023-05-19T11:07:18.519Z,1220.00
2023-05-19T11:08:18.457Z,1400.00
2023-05-19T11:09:19.503Z,1456.00
2023-05-19T11:10:18.595Z,1600.00
2023-05-19T11:11:18.430Z,1644.00
2023-05-19T11:12:18.464Z,1468.00
2023-05-19T11:13:18.352Z,1404.00
2023-05-19T11:14:18.357Z,1388.00
2023-05-19T11:15:18.335Z,1368.00
2023-05-19T11:16:18.380Z,1364.00
2023-05-19T11:17:20.288Z,1448.00
2023-05-19T11:18:18.347Z,1376.00
2023-05-19T11:19:18.346Z,1216.00
2023-05-19T11:20:18.318Z,1064.00
2023-05-19T11:21:18.317Z,808.00
2023-05-19T11:22:18.356Z,668.00
2023-05-19T11:23:18.315Z,608.00
2023-05-19T11:24:20.213Z,616.00
2023-05-19T11:25:18.320Z,632.00
2023-05-19T11:26:18.241Z,656.00
2023-05-19T11:27:18.220Z,704.00
2023-05-19T11:28:18.161Z,880.00
2023-05-19T11:29:18.172Z,920.00
2023-05-19T11:30:18.222Z,1000.00
2023-05-19T11:31:18.413Z,1148.00
2023-05-19T11:32:18.176Z,1328.00
2023-05-19T11:33:18.176Z,1620.00
2023-05-19T11:34:18.159Z,1756.00
2023-05-19T11:35:18.156Z,1760.00
2023-05-19T11:36:18.188Z,1780.00
2023-05-19T11:37:18.132Z,1716.00
2023-05-19T11:38:18.138Z,1720.00
2023-05-19T11:39:18.217Z,1532.00
2023-05-19T11:40:18.176Z,1480.00
2023-05-19T11:41:19.529Z,1368.00
2023-05-19T11:42:18.112Z,1208.00
2023-05-19T11:43:18.054Z,1016.00
2023-05-19T11:44:18.057Z,888.00
2023-05-19T11:45:18.078Z,1024.00
2023-05-19T11:46:18.488Z,1124.00
2023-05-19T11:47:18.047Z,1112.00
2023-05-19T11:48:18.103Z,944.00
2023-05-19T11:49:17.994Z,764.00
2023-05-19T11:50:18.031Z,936.00
2023-05-19T11:51:17.959Z,824.00
2023-05-19T11:52:18.114Z,892.00
2023-05-19T11:53:20.172Z,732.00
2023-05-19T11:54:17.995Z,660.00
2023-05-19T11:55:18.011Z,584.00
2023-05-19T11:56:17.994Z,552.00
2023-05-19T11:57:17.904Z,552.00
2023-05-19T11:58:17.864Z,648.00
2023-05-19T11:59:19.881Z,616.00
2023-05-19T12:00:17.874Z,656.00
2023-05-19T12:01:17.877Z,672.00
2023-05-19T12:02:17.920Z,688.00
2023-05-19T12:03:17.918Z,688.00
2023-05-19T12:04:17.852Z,720.00
2023-05-19T12:05:17.958Z,612.00
2023-05-19T12:06:19.843Z,548.00
2023-05-19T12:07:17.788Z,536.00
2023-05-19T12:08:17.848Z,540.00
2023-05-19T12:09:19.624Z,596.00
2023-05-19T12:10:17.770Z,660.00
2023-05-19T12:11:18.157Z,648.00
2023-05-19T12:12:17.760Z,696.00
2023-05-19T12:13:17.925Z,672.00
2023-05-19T12:14:17.714Z,772.00
2023-05-19T12:15:17.854Z,708.00
2023-05-19T12:16:17.757Z,732.00
2023-05-19T12:17:17.709Z,620.00
2023-05-19T12:18:17.695Z,604.00
2023-05-19T12:19:17.770Z,604.00
2023-05-19T12:20:17.742Z,612.00
2023-05-19T12:21:17.694Z,620.00
2023-05-19T12:22:17.667Z,640.00
2023-05-19T12:23:17.741Z,648.00
2023-05-19T12:24:17.577Z,684.00
2023-05-19T12:25:17.604Z,664.00
2023-05-19T12:26:17.577Z,672.00
2023-05-19T12:27:21.106Z,824.00
2023-05-19T12:28:17.602Z,800.00
2023-05-19T12:29:17.531Z,800.00
2023-05-19T12:30:17.549Z,700.00
2023-05-19T12:31:17.554Z,748.00
2023-05-19T12:32:17.552Z,868.00
2023-05-19T12:33:17.492Z,880.00
2023-05-19T12:34:17.657Z,928.00
2023-05-19T12:35:17.479Z,1008.00
2023-05-19T12:36:17.462Z,1104.00
2023-05-19T12:37:17.507Z,1208.00
2023-05-19T12:38:17.474Z,1172.00